createdAt,value
2023-05-04T00:00:24.380Z,7.65
2023-05-04T00:02:51.158Z,7.65
2023-05-04T00:05:17.850Z,9.23
2023-05-04T00:07:44.421Z,9.63
2023-05-04T00:10:11.222Z,7.25
2023-05-04T00:12:38.206Z,11.20
2023-05-04T00:15:06.377Z,9.07
2023-05-04T00:17:33.066Z,8.45
2023-05-04T00:20:00.475Z,10.02
2023-05-04T00:22:29.691Z,11.27
2023-05-04T00:24:56.419Z,8.93
2023-05-04T00:27:23.038Z,12.55
2023-05-04T00:29:50.398Z,8.40
2023-05-04T00:32:16.997Z,8.27
2023-05-04T00:34:43.619Z,8.65
2023-05-04T00:37:11.800Z,7.45
2023-05-04T00:39:38.447Z,13.45
2023-05-04T00:42:05.174Z,8.93
2023-05-04T00:44:32.735Z,9.52
2023-05-04T00:46:59.421Z,7.13
2023-05-04T00:49:26.626Z,8.68
2023-05-04T00:51:55.419Z,9.70
2023-05-04T00:54:23.231Z,7.28
2023-05-04T00:56:50.493Z,6.47
2023-05-04T00:59:19.871Z,5.07
2023-05-04T01:01:46.467Z,9.70
2023-05-04T01:04:13.311Z,6.20
2023-05-04T01:06:56.469Z,6.70
2023-05-04T01:09:37.402Z,8.55
2023-05-04T01:12:22.273Z,7.78
2023-05-04T01:14:50.328Z,5.78
2023-05-04T01:17:17.562Z,6.20
2023-05-04T01:19:44.238Z,6.15
2023-05-04T01:22:11.810Z,4.72
2023-05-04T01:24:38.498Z,7.63
2023-05-04T01:27:09.492Z,6.53
2023-05-04T01:29:49.013Z,6.35
2023-05-04T01:32:18.496Z,4.55
2023-05-04T01:34:45.450Z,5.00
2023-05-04T01:37:12.049Z,5.65
2023-05-04T01:39:38.751Z,3.78
2023-05-04T01:42:07.342Z,3.78
2023-05-04T01:44:34.221Z,5.07
2023-05-04T01:47:06.124Z,5.40
2023-05-04T01:49:32.727Z,3.17
2023-05-04T01:51:59.331Z,3.83
2023-05-04T01:54:26.538Z,3.60
2023-05-04T01:56:53.157Z,4.78
2023-05-04T01:59:19.748Z,4.40
2023-05-04T02:01:47.235Z,3.45
2023-05-04T02:04:13.905Z,6.13
2023-05-04T02:06:40.646Z,4.88
2023-05-04T02:09:07.538Z,3.47
2023-05-04T02:11:34.138Z,3.30
2023-05-04T02:14:00.755Z,3.22
2023-05-04T02:16:27.483Z,6.63
2023-05-04T02:18:54.225Z,2.97
2023-05-04T02:21:21.691Z,4.70
2023-05-04T02:23:50.330Z,3.38
2023-05-04T02:26:16.883Z,4.28
2023-05-04T02:28:43.453Z,3.83
2023-05-04T02:31:10.175Z,5.32
2023-05-04T02:33:36.848Z,6.07
2023-05-04T02:36:03.594Z,2.65
2023-05-04T02:38:30.318Z,5.97
2023-05-04T02:40:58.463Z,3.65
2023-05-04T02:43:25.118Z,3.42
2023-05-04T02:45:52.771Z,3.42
2023-05-04T02:48:19.513Z,4.20
2023-05-04T02:50:46.572Z,5.55
2023-05-04T02:53:13.301Z,4.90
2023-05-04T02:55:39.876Z,4.13
2023-05-04T02:58:06.716Z,3.70
2023-05-04T03:00:33.662Z,3.63
2023-05-04T03:03:00.342Z,3.20
2023-05-04T03:05:27.078Z,5.55
2023-05-04T03:07:54.524Z,3.10
2023-05-04T03:10:21.201Z,2.80
2023-05-04T03:12:47.856Z,4.75
2023-05-04T03:15:14.503Z,5.60
2023-05-04T03:17:41.129Z,3.15
2023-05-04T03:20:09.608Z,4.72
2023-05-04T03:22:37.237Z,4.13
2023-05-04T03:25:04.050Z,2.78
2023-05-04T03:27:30.666Z,3.80
2023-05-04T03:29:57.712Z,2.38
2023-05-04T03:32:24.935Z,5.30
2023-05-04T03:34:51.999Z,3.10
2023-05-04T03:37:18.607Z,3.33
2023-05-04T03:39:45.220Z,4.68
2023-05-04T03:42:11.806Z,2.97
2023-05-04T03:44:40.198Z,4.22
2023-05-04T03:47:07.803Z,4.20
2023-05-04T03:49:54.141Z,5.40
2023-05-04T03:52:20.748Z,4.63
2023-05-04T03:54:47.382Z,4.63
2023-05-04T03:57:14.755Z,3.47
2023-05-04T03:59:41.328Z,3.55
2023-05-04T04:02:08.068Z,3.65
2023-05-04T04:04:35.841Z,5.40
2023-05-04T04:07:02.501Z,4.00
2023-05-04T04:09:29.090Z,3.85
